sensor_id;sensor_type;location;lat;lon;timestamp;temperature;humidity
21121;DHT22;12519;43.318;21.898;2023-01-15T00:04:15;7.4;100.0
21121;DHT22;12519;43.318;21.898;2023-01-15T00:08:54;7.6;100.0
21121;DHT22;12519;43.318;21.898;2023-01-15T00:13:31;7.6;100.0
21121;DHT22;12519;43.318;21.898;2023-01-15T00:18:07;7.6;100.0
21121;DHT22;12519;43.318;21.898;2023-01-15T00:22:45;7.6;100.0
21121;DHT22;12519;43.318;21.898;2023-01-15T00:27:22;7.6;100.0
21121;DHT22;12519;43.318;21.898;2023-01-15T00:32:07;7.6;100.0
21121;DHT22;12519;43.318;21.898;2023-01-15T00:36:44;7.4;100.0
21121;DHT22;12519;43.318;21.898;2023-01-15T00:41:21;7.4;100.0
21121;DHT22;12519;43.318;21.898;2023-01-15T00:45:58;7.2;100.0
21121;DHT22;12519;43.318;21.898;2023-01-15T00:50:34;7.2;100.0
21121;DHT22;12519;43.318;21.898;2023-01-15T00:55:11;7.2;100.0
21121;DHT22;12519;43.318;21.898;2023-01-15T00:59:47;7.2;100.0
21121;DHT22;12519;43.318;21.898;2023-01-15T01:04:24;7.2;100.0
21121;DHT22;12519;43.318;21.898;2023-01-15T01:09:00;7.3;100.0
21121;DHT22;12519;43.318;21.898;2023-01-15T01:13:38;7.3;100.0
21121;DHT22;12519;43.318;21.898;2023-01-15T01:18:14;7.4;100.0
21121;DHT22;12519;43.318;21.898;2023-01-15T01:22:51;7.4;100.0
21121;DHT22;12519;43.318;21.898;2023-01-15T01:27:28;7.6;100.0
21121;DHT22;12519;43.318;21.898;2023-01-15T01:32:05;7.6;100.0
21121;DHT22;12519;43.318;21.898;2023-01-15T01:36:43;7.6;100.0
21121;DHT22;12519;43.318;21.898;2023-01-15T01:41:20;7.6;100.0
21121;DHT22;12519;43.318;21.898;2023-01-15T01:45:57;7.6;100.0
21121;DHT22;12519;43.318;21.898;2023-01-15T01:50:40;7.6;100.0
21121;DHT22;12519;43.318;21.898;2023-01-15T01:55:25;7.6;100.0
21121;DHT22;12519;43.318;21.898;2023-01-15T02:00:12;7.6;100.0
21121;DHT22;12519;43.318;21.898;2023-01-15T02:04:51;7.6;100.0
21121;DHT22;12519;43.318;21.898;2023-01-15T02:09:28;7.5;100.0
21121;DHT22;12519;43.318;21.898;2023-01-15T02:14:20;7.5;100.0
21121;DHT22;12519;43.318;21.898;2023-01-15T02:19:33;7.6;100.0
21121;DHT22;12519;43.318;21.898;2023-01-15T02:24:59;7.6;100.0
21121;DHT22;12519;43.318;21.898;2023-01-15T02:30:02;7.8;100.0
21121;DHT22;12519;43.318;21.898;2023-01-15T02:34:54;7.8;100.0
21121;DHT22;12519;43.318;21.898;2023-01-15T02:39:45;7.5;100.0
21121;DHT22;12519;43.318;21.898;2023-01-15T02:44:32;7.5;100.0
21121;DHT22;12519;43.318;21.898;2023-01-15T02:49:26;7.2;100.0
21121;DHT22;12519;43.318;21.898;2023-01-15T02:54:15;7.2;100.0
21121;DHT22;12519;43.318;21.898;2023-01-15T02:59:11;7.2;100.0
21121;DHT22;12519;43.318;21.898;2023-01-15T03:04:19;7.2;100.0
21121;DHT22;12519;43.318;21.898;2023-01-15T03:09:18;7.3;100.0
21121;DHT22;12519;43.318;21.898;2023-01-15T03:14:08;7.3;100.0
21121;DHT22;12519;43.318;21.898;2023-01-15T03:19:26;7.3;100.0
21121;DHT22;12519;43.318;21.898;2023-01-15T03:24:39;7.3;100.0
21121;DHT22;12519;43.318;21.898;2023-01-15T03:29:38;7.3;100.0
21121;DHT22;12519;43.318;21.898;2023-01-15T03:34:41;7.3;100.0
21121;DHT22;12519;43.318;21.898;2023-01-15T03:39:21;7.4;100.0
21121;DHT22;12519;43.318;21.898;2023-01-15T03:44:20;7.4;100.0
21121;DHT22;12519;43.318;21.898;2023-01-15T03:49:26;7.5;100.0
21121;DHT22;12519;43.318;21.898;2023-01-15T03:54:34;7.5;100.0
21121;DHT22;12519;43.318;21.898;2023-01-15T03:59:35;7.6;100.0
21121;DHT22;12519;43.318;21.898;2023-01-15T04:04:23;7.6;100.0
21121;DHT22;12519;43.318;21.898;2023-01-15T04:09:10;7.6;100.0
21121;DHT22;12519;43.318;21.898;2023-01-15T04:13:50;7.6;100.0
21121;DHT22;12519;43.318;21.898;2023-01-15T04:18:28;8.0;100.0
21121;DHT22;12519;43.318;21.898;2023-01-15T04:23:04;8.0;100.0
21121;DHT22;12519;43.318;21.898;2023-01-15T04:27:41;8.5;100.0
21121;DHT22;12519;43.318;21.898;2023-01-15T04:32:18;8.5;100.0
21121;DHT22;12519;43.318;21.898;2023-01-15T04:36:56;9.2;100.0
21121;DHT22;12519;43.318;21.898;2023-01-15T04:41:33;9.2;100.0
21121;DHT22;12519;43.318;21.898;2023-01-15T04:46:09;9.8;100.0
21121;DHT22;12519;43.318;21.898;2023-01-15T04:50:45;9.8;100.0
21121;DHT22;12519;43.318;21.898;2023-01-15T04:55:22;9.8;100.0
21121;DHT22;12519;43.318;21.898;2023-01-15T04:59:58;9.0;100.0
21121;DHT22;12519;43.318;21.898;2023-01-15T05:04:35;9.0;100.0
21121;DHT22;12519;43.318;21.898;2023-01-15T05:09:12;8.1;100.0
21121;DHT22;12519;43.318;21.898;2023-01-15T05:13:48;8.1;100.0
21121;DHT22;12519;43.318;21.898;2023-01-15T05:18:25;7.8;100.0
21121;DHT22;12519;43.318;21.898;2023-01-15T05:23:01;7.8;100.0
21121;DHT22;12519;43.318;21.898;2023-01-15T05:27:37;7.6;100.0
21121;DHT22;12519;43.318;21.898;2023-01-15T05:32:14;7.6;100.0
21121;DHT22;12519;43.318;21.898;2023-01-15T05:36:51;7.6;100.0
21121;DHT22;12519;43.318;21.898;2023-01-15T05:41:29;7.6;100.0
21121;DHT22;12519;43.318;21.898;2023-01-15T05:46:06;7.6;100.0
21121;DHT22;12519;43.318;21.898;2023-01-15T05:50:42;7.6;100.0
21121;DHT22;12519;43.318;21.898;2023-01-15T05:55:19;7.6;100.0
21121;DHT22;12519;43.318;21.898;2023-01-15T05:59:56;7.6;100.0
21121;DHT22;12519;43.318;21.898;2023-01-15T06:04:34;7.6;100.0
21121;DHT22;12519;43.318;21.898;2023-01-15T06:09:10;7.6;100.0
21121;DHT22;12519;43.318;21.898;2023-01-15T06:13:50;7.6;100.0
21121;DHT22;12519;43.318;21.898;2023-01-15T06:18:27;7.6;100.0
21121;DHT22;12519;43.318;21.898;2023-01-15T06:23:04;7.6;100.0
21121;DHT22;12519;43.318;21.898;2023-01-15T06:27:41;7.5;100.0
21121;DHT22;12519;43.318;21.898;2023-01-15T06:32:18;7.5;100.0
21121;DHT22;12519;43.318;21.898;2023-01-15T06:36:54;7.5;100.0
21121;DHT22;12519;43.318;21.898;2023-01-15T06:41:30;7.5;100.0
21121;DHT22;12519;43.318;21.898;2023-01-15T06:46:08;7.5;100.0
21121;DHT22;12519;43.318;21.898;2023-01-15T06:50:45;7.5;100.0
21121;DHT22;12519;43.318;21.898;2023-01-15T06:55:21;7.5;100.0
21121;DHT22;12519;43.318;21.898;2023-01-15T06:59:58;7.4;100.0
21121;DHT22;12519;43.318;21.898;2023-01-15T07:04:35;7.4;100.0
21121;DHT22;12519;43.318;21.898;2023-01-15T07:09:12;7.3;100.0
21121;DHT22;12519;43.318;21.898;2023-01-15T07:13:49;7.3;100.0
21121;DHT22;12519;43.318;21.898;2023-01-15T07:18:29;7.4;100.0
21121;DHT22;12519;43.318;21.898;2023-01-15T07:23:08;7.4;100.0
21121;DHT22;12519;43.318;21.898;2023-01-15T07:27:47;7.4;100.0
21121;DHT22;12519;43.318;21.898;2023-01-15T07:32:24;7.4;100.0
21121;DHT22;12519;43.318;21.898;2023-01-15T07:37:00;7.4;100.0
21121;DHT22;12519;43.318;21.898;2023-01-15T07:41:37;7.4;100.0
21121;DHT22;12519;43.318;21.898;2023-01-15T07:46:14;7.5;100.0
21121;DHT22;12519;43.318;21.898;2023-01-15T07:50:50;7.5;100.0
21121;DHT22;12519;43.318;21.898;2023-01-15T07:55:27;7.5;100.0
21121;DHT22;12519;43.318;21.898;2023-01-15T08:00:11;7.6;100.0
21121;DHT22;12519;43.318;21.898;2023-01-15T08:04:54;7.6;100.0
21121;DHT22;12519;43.318;21.898;2023-01-15T08:09:31;7.7;100.0
21121;DHT22;12519;43.318;21.898;2023-01-15T08:14:10;7.7;100.0
21121;DHT22;12519;43.318;21.898;2023-01-15T08:18:47;8.0;100.0
21121;DHT22;12519;43.318;21.898;2023-01-15T08:23:23;8.0;100.0
21121;DHT22;12519;43.318;21.898;2023-01-15T08:28:02;8.4;100.0
21121;DHT22;12519;43.318;21.898;2023-01-15T08:32:39;8.4;100.0
21121;DHT22;12519;43.318;21.898;2023-01-15T08:37:17;8.9;100.0
21121;DHT22;12519;43.318;21.898;2023-01-15T08:41:55;8.9;100.0
21121;DHT22;12519;43.318;21.898;2023-01-15T08:46:32;9.3;100.0
21121;DHT22;12519;43.318;21.898;2023-01-15T08:51:11;9.3;100.0
21121;DHT22;12519;43.318;21.898;2023-01-15T08:55:48;9.3;100.0
21121;DHT22;12519;43.318;21.898;2023-01-15T09:00:24;8.8;100.0
21121;DHT22;12519;43.318;21.898;2023-01-15T09:05:01;8.8;100.0
21121;DHT22;12519;43.318;21.898;2023-01-15T09:09:37;8.2;100.0
21121;DHT22;12519;43.318;21.898;2023-01-15T09:14:15;8.2;100.0
21121;DHT22;12519;43.318;21.898;2023-01-15T09:18:51;8.3;100.0
21121;DHT22;12519;43.318;21.898;2023-01-15T09:23:27;8.3;100.0
21121;DHT22;12519;43.318;21.898;2023-01-15T09:28:04;8.4;100.0
21121;DHT22;12519;43.318;21.898;2023-01-15T09:32:40;8.4;100.0
21121;DHT22;12519;43.318;21.898;2023-01-15T09:37:17;8.6;100.0
21121;DHT22;12519;43.318;21.898;2023-01-15T09:42:30;8.6;100.0
21121;DHT22;12519;43.318;21.898;2023-01-15T09:47:34;8.7;100.0
21121;DHT22;12519;43.318;21.898;2023-01-15T09:53:04;8.7;100.0
21121;DHT22;12519;43.318;21.898;2023-01-15T09:58:18;8.7;99.0
21121;DHT22;12519;43.318;21.898;2023-01-15T10:03:36;8.7;99.0
21121;DHT22;12519;43.318;21.898;2023-01-15T10:08:29;8.7;99.0
21121;DHT22;12519;43.318;21.898;2023-01-15T10:13:34;8.7;99.0
21121;DHT22;12519;43.318;21.898;2023-01-15T10:18:27;8.7;97.0
21121;DHT22;12519;43.318;21.898;2023-01-15T10:23:34;8.7;97.0
21121;DHT22;12519;43.318;21.898;2023-01-15T10:28:25;8.7;96.0
21121;DHT22;12519;43.318;21.898;2023-01-15T10:33:51;8.7;96.0
21121;DHT22;12519;43.318;21.898;2023-01-15T10:39:01;8.8;95.0
21121;DHT22;12519;43.318;21.898;2023-01-15T10:44:04;8.8;95.0
21121;DHT22;12519;43.318;21.898;2023-01-15T10:48:58;8.8;94.0
21121;DHT22;12519;43.318;21.898;2023-01-15T10:54:00;8.8;94.0
21121;DHT22;12519;43.318;21.898;2023-01-15T10:59:14;9.0;93.0
21121;DHT22;12519;43.318;21.898;2023-01-15T11:04:14;9.0;93.0
21121;DHT22;12519;43.318;21.898;2023-01-15T11:08:58;9.1;92.0
21121;DHT22;12519;43.318;21.898;2023-01-15T11:13:35;9.1;92.0
21121;DHT22;12519;43.318;21.898;2023-01-15T11:18:26;9.0;91.0
21121;DHT22;12519;43.318;21.898;2023-01-15T11:23:18;9.0;91.0
21121;DHT22;12519;43.318;21.898;2023-01-15T11:28:04;9.0;91.0
21121;DHT22;12519;43.318;21.898;2023-01-15T11:32:42;9.0;91.0
21121;DHT22;12519;43.318;21.898;2023-01-15T11:37:31;9.0;90.0
21121;DHT22;12519;43.318;21.898;2023-01-15T11:42:17;9.0;90.0
21121;DHT22;12519;43.318;21.898;2023-01-15T11:46:55;9.1;90.0
21121;DHT22;12519;43.318;21.898;2023-01-15T11:51:46;9.1;90.0
21121;DHT22;12519;43.318;21.898;2023-01-15T11:56:29;9.1;90.0
21121;DHT22;12519;43.318;21.898;2023-01-15T12:01:19;9.4;90.0
21121;DHT22;12519;43.318;21.898;2023-01-15T12:06:05;9.4;90.0
21121;DHT22;12519;43.318;21.898;2023-01-15T12:11:08;9.6;91.0
21121;DHT22;12519;43.318;21.898;2023-01-15T12:16:15;9.6;91.0
21121;DHT22;12519;43.318;21.898;2023-01-15T12:21:47;9.7;90.0
21121;DHT22;12519;43.318;21.898;2023-01-15T12:27:27;9.8;89.0
21121;DHT22;12519;43.318;21.898;2023-01-15T12:32:43;9.8;89.0
21121;DHT22;12519;43.318;21.898;2023-01-15T12:37:54;9.9;88.0
21121;DHT22;12519;43.318;21.898;2023-01-15T12:42:54;9.9;88.0
21121;DHT22;12519;43.318;21.898;2023-01-15T12:47:48;9.9;87.0
21121;DHT22;12519;43.318;21.898;2023-01-15T12:52:50;9.9;87.0
21121;DHT22;12519;43.318;21.898;2023-01-15T12:57:45;10.4;86.0
21121;DHT22;12519;43.318;21.898;2023-01-15T13:02:55;10.4;86.0
21121;DHT22;12519;43.318;21.898;2023-01-15T13:08:01;11.0;86.0
21121;DHT22;12519;43.318;21.898;2023-01-15T13:12:45;11.0;86.0
21121;DHT22;12519;43.318;21.898;2023-01-15T13:17:51;10.8;85.0
21121;DHT22;12519;43.318;21.898;2023-01-15T13:23:08;10.8;85.0
21121;DHT22;12519;43.318;21.898;2023-01-15T13:28:33;10.6;85.0
21121;DHT22;12519;43.318;21.898;2023-01-15T13:33:51;10.6;85.0
21121;DHT22;12519;43.318;21.898;2023-01-15T13:39:00;10.6;85.0
21121;DHT22;12519;43.318;21.898;2023-01-15T13:44:00;10.6;85.0
21121;DHT22;12519;43.318;21.898;2023-01-15T13:48:46;10.6;85.0
21121;DHT22;12519;43.318;21.898;2023-01-15T13:53:35;10.6;85.0
21121;DHT22;12519;43.318;21.898;2023-01-15T13:58:30;10.8;85.0
21121;DHT22;12519;43.318;21.898;2023-01-15T14:03:29;10.8;85.0
21121;DHT22;12519;43.318;21.898;2023-01-15T14:08:24;10.9;86.0
21121;DHT22;12519;43.318;21.898;2023-01-15T14:14:00;10.9;86.0
21121;DHT22;12519;43.318;21.898;2023-01-15T14:20:36;10.8;86.0
21121;DHT22;12519;43.318;21.898;2023-01-15T14:25:56;10.8;86.0
21121;DHT22;12519;43.318;21.898;2023-01-15T14:31:31;10.7;86.0
21121;DHT22;12519;43.318;21.898;2023-01-15T14:36:28;10.7;86.0
21121;DHT22;12519;43.318;21.898;2023-01-15T14:41:13;10.7;86.0
21121;DHT22;12519;43.318;21.898;2023-01-15T14:45:50;10.7;86.0
21121;DHT22;12519;43.318;21.898;2023-01-15T14:50:37;10.7;86.0
21121;DHT22;12519;43.318;21.898;2023-01-15T14:55:21;10.7;86.0
21121;DHT22;12519;43.318;21.898;2023-01-15T15:00:05;10.4;86.0
21121;DHT22;12519;43.318;21.898;2023-01-15T15:04:58;10.4;86.0
21121;DHT22;12519;43.318;21.898;2023-01-15T15:09:47;10.2;86.0
21121;DHT22;12519;43.318;21.898;2023-01-15T15:14:45;10.2;86.0
21121;DHT22;12519;43.318;21.898;2023-01-15T15:20:02;10.0;87.0
21121;DHT22;12519;43.318;21.898;2023-01-15T15:25:20;10.0;87.0
21121;DHT22;12519;43.318;21.898;2023-01-15T15:30:12;9.9;87.0
21121;DHT22;12519;43.318;21.898;2023-01-15T15:34:54;9.9;87.0
21121;DHT22;12519;43.318;21.898;2023-01-15T15:39:48;9.7;88.0
21121;DHT22;12519;43.318;21.898;2023-01-15T15:44:43;9.7;88.0
21121;DHT22;12519;43.318;21.898;2023-01-15T15:49:40;9.5;88.0
21121;DHT22;12519;43.318;21.898;2023-01-15T15:54:22;9.5;88.0
21121;DHT22;12519;43.318;21.898;2023-01-15T15:59:02;9.4;88.0
21121;DHT22;12519;43.318;21.898;2023-01-15T16:03:47;9.4;88.0
21121;DHT22;12519;43.318;21.898;2023-01-15T16:08:27;9.4;89.0
21121;DHT22;12519;43.318;21.898;2023-01-15T16:13:22;9.4;89.0
21121;DHT22;12519;43.318;21.898;2023-01-15T16:18:13;9.0;90.0
21121;DHT22;12519;43.318;21.898;2023-01-15T16:23:04;9.0;90.0
21121;DHT22;12519;43.318;21.898;2023-01-15T16:27:57;8.7;91.0
21121;DHT22;12519;43.318;21.898;2023-01-15T16:32:43;8.7;91.0
21121;DHT22;12519;43.318;21.898;2023-01-15T16:37:28;8.8;92.0
21121;DHT22;12519;43.318;21.898;2023-01-15T16:42:32;8.8;92.0
21121;DHT22;12519;43.318;21.898;2023-01-15T16:47:25;8.9;92.0
21121;DHT22;12519;43.318;21.898;2023-01-15T16:52:50;8.9;92.0
21121;DHT22;12519;43.318;21.898;2023-01-15T16:57:32;9.0;92.0
21121;DHT22;12519;43.318;21.898;2023-01-15T17:02:17;9.0;92.0
21121;DHT22;12519;43.318;21.898;2023-01-15T17:07:01;9.0;92.0
21121;DHT22;12519;43.318;21.898;2023-01-15T17:11:41;9.0;91.0
21121;DHT22;12519;43.318;21.898;2023-01-15T17:16:24;9.0;91.0
21121;DHT22;12519;43.318;21.898;2023-01-15T17:21:00;9.0;91.0
21121;DHT22;12519;43.318;21.898;2023-01-15T17:25:36;9.0;91.0
21121;DHT22;12519;43.318;21.898;2023-01-15T17:30:15;8.9;90.0
21121;DHT22;12519;43.318;21.898;2023-01-15T17:34:53;8.9;90.0
21121;DHT22;12519;43.318;21.898;2023-01-15T17:39:30;8.8;91.0
21121;DHT22;12519;43.318;21.898;2023-01-15T17:44:08;8.8;91.0
21121;DHT22;12519;43.318;21.898;2023-01-15T17:48:45;8.6;91.0
21121;DHT22;12519;43.318;21.898;2023-01-15T17:53:22;8.6;91.0
21121;DHT22;12519;43.318;21.898;2023-01-15T17:57:59;8.6;91.0
21121;DHT22;12519;43.318;21.898;2023-01-15T18:02:35;8.6;91.0
21121;DHT22;12519;43.318;21.898;2023-01-15T18:07:18;8.6;91.0
21121;DHT22;12519;43.318;21.898;2023-01-15T18:12:11;8.6;91.0
21121;DHT22;12519;43.318;21.898;2023-01-15T18:16:47;8.6;91.0
21121;DHT22;12519;43.318;21.898;2023-01-15T18:21:23;8.4;91.0
21121;DHT22;12519;43.318;21.898;2023-01-15T18:26:03;8.4;91.0
21121;DHT22;12519;43.318;21.898;2023-01-15T18:30:41;8.3;91.0
21121;DHT22;12519;43.318;21.898;2023-01-15T18:35:18;8.3;91.0
21121;DHT22;12519;43.318;21.898;2023-01-15T18:39:54;8.4;91.0
21121;DHT22;12519;43.318;21.898;2023-01-15T18:44:30;8.4;91.0
21121;DHT22;12519;43.318;21.898;2023-01-15T18:49:07;8.4;91.0
21121;DHT22;12519;43.318;21.898;2023-01-15T18:53:43;8.4;91.0
21121;DHT22;12519;43.318;21.898;2023-01-15T18:58:23;8.0;92.0
21121;DHT22;12519;43.318;21.898;2023-01-15T19:03:00;8.0;92.0
21121;DHT22;12519;43.318;21.898;2023-01-15T19:07:37;7.7;93.0
21121;DHT22;12519;43.318;21.898;2023-01-15T19:12:15;7.7;93.0
21121;DHT22;12519;43.318;21.898;2023-01-15T19:16:52;7.7;93.0
21121;DHT22;12519;43.318;21.898;2023-01-15T19:21:29;7.6;93.0
21121;DHT22;12519;43.318;21.898;2023-01-15T19:26:06;7.6;93.0
21121;DHT22;12519;43.318;21.898;2023-01-15T19:30:45;7.4;94.0
21121;DHT22;12519;43.318;21.898;2023-01-15T19:35:25;7.4;94.0
21121;DHT22;12519;43.318;21.898;2023-01-15T19:40:03;7.4;94.0
21121;DHT22;12519;43.318;21.898;2023-01-15T19:44:45;7.4;94.0
21121;DHT22;12519;43.318;21.898;2023-01-15T19:49:22;7.3;94.0
21121;DHT22;12519;43.318;21.898;2023-01-15T19:53:58;7.3;94.0
21121;DHT22;12519;43.318;21.898;2023-01-15T19:58:35;7.2;94.0
21121;DHT22;12519;43.318;21.898;2023-01-15T20:03:11;7.2;94.0
21121;DHT22;12519;43.318;21.898;2023-01-15T20:07:48;7.2;94.0
21121;DHT22;12519;43.318;21.898;2023-01-15T20:12:24;7.2;94.0
21121;DHT22;12519;43.318;21.898;2023-01-15T20:17:01;7.2;94.0
21121;DHT22;12519;43.318;21.898;2023-01-15T20:21:37;7.3;94.0
21121;DHT22;12519;43.318;21.898;2023-01-15T20:26:14;7.3;94.0
21121;DHT22;12519;43.318;21.898;2023-01-15T20:30:51;7.4;93.0
21121;DHT22;12519;43.318;21.898;2023-01-15T20:35:29;7.4;93.0
21121;DHT22;12519;43.318;21.898;2023-01-15T20:40:08;7.4;92.0
21121;DHT22;12519;43.318;21.898;2023-01-15T20:44:48;7.4;92.0
21121;DHT22;12519;43.318;21.898;2023-01-15T20:49:25;7.3;92.0
21121;DHT22;12519;43.318;21.898;2023-01-15T20:54:02;7.3;92.0
21121;DHT22;12519;43.318;21.898;2023-01-15T20:58:38;7.2;92.0
21121;DHT22;12519;43.318;21.898;2023-01-15T21:03:16;7.2;92.0
21121;DHT22;12519;43.318;21.898;2023-01-15T21:07:53;7.1;92.0
21121;DHT22;12519;43.318;21.898;2023-01-15T21:12:29;7.1;92.0
21121;DHT22;12519;43.318;21.898;2023-01-15T21:17:05;7.1;92.0
21121;DHT22;12519;43.318;21.898;2023-01-15T21:21:42;7.1;93.0
21121;DHT22;12519;43.318;21.898;2023-01-15T21:26:19;7.1;93.0
21121;DHT22;12519;43.318;21.898;2023-01-15T21:30:57;7.1;93.0
21121;DHT22;12519;43.318;21.898;2023-01-15T21:35:38;7.1;93.0
21121;DHT22;12519;43.318;21.898;2023-01-15T21:40:17;7.8;95.0
21121;DHT22;12519;43.318;21.898;2023-01-15T21:44:54;7.8;95.0
21121;DHT22;12519;43.318;21.898;2023-01-15T21:49:32;8.6;96.0
21121;DHT22;12519;43.318;21.898;2023-01-15T21:54:11;8.6;96.0
21121;DHT22;12519;43.318;21.898;2023-01-15T21:58:48;8.4;96.0
21121;DHT22;12519;43.318;21.898;2023-01-15T22:03:25;8.4;96.0
21121;DHT22;12519;43.318;21.898;2023-01-15T22:08:02;8.1;95.0
21121;DHT22;12519;43.318;21.898;2023-01-15T22:12:39;8.1;95.0
21121;DHT22;12519;43.318;21.898;2023-01-15T22:17:16;8.1;95.0
21121;DHT22;12519;43.318;21.898;2023-01-15T22:21:57;7.7;96.0
21121;DHT22;12519;43.318;21.898;2023-01-15T22:26:38;7.7;96.0
21121;DHT22;12519;43.318;21.898;2023-01-15T22:31:15;7.3;97.0
21121;DHT22;12519;43.318;21.898;2023-01-15T22:35:56;7.3;97.0
21121;DHT22;12519;43.318;21.898;2023-01-15T22:40:35;7.3;97.0
21121;DHT22;12519;43.318;21.898;2023-01-15T22:45:11;7.3;97.0
21121;DHT22;12519;43.318;21.898;2023-01-15T22:49:48;7.3;97.0
21121;DHT22;12519;43.318;21.898;2023-01-15T22:54:25;7.3;97.0
21121;DHT22;12519;43.318;21.898;2023-01-15T22:59:01;7.3;96.0
21121;DHT22;12519;43.318;21.898;2023-01-15T23:03:37;7.3;96.0
21121;DHT22;12519;43.318;21.898;2023-01-15T23:08:15;7.3;96.0
21121;DHT22;12519;43.318;21.898;2023-01-15T23:12:52;7.3;96.0
21121;DHT22;12519;43.318;21.898;2023-01-15T23:17:29;7.3;96.0
21121;DHT22;12519;43.318;21.898;2023-01-15T23:22:06;7.2;96.0
21121;DHT22;12519;43.318;21.898;2023-01-15T23:26:42;7.2;96.0
21121;DHT22;12519;43.318;21.898;2023-01-15T23:31:20;7.2;96.0
21121;DHT22;12519;43.318;21.898;2023-01-15T23:35:58;7.2;96.0
21121;DHT22;12519;43.318;21.898;2023-01-15T23:40:38;7.2;96.0
21121;DHT22;12519;43.318;21.898;2023-01-15T23:45:15;7.2;96.0
21121;DHT22;12519;43.318;21.898;2023-01-15T23:49:52;7.1;96.0
21121;DHT22;12519;43.318;21.898;2023-01-15T23:54:28;7.1;96.0
21121;DHT22;12519;43.318;21.898;2023-01-15T23:59:04;7.1;96.0
